sensor_id;sensor_type;location;lat;lon;timestamp;temperature;humidity
44359;DHT22;30077;52.474;13.326;2023-04-23T00:04:48;15.00;96.30
44359;DHT22;30077;52.474;13.326;2023-04-23T00:09:51;14.90;96.70
44359;DHT22;30077;52.474;13.326;2023-04-23T00:14:52;14.90;97.10
44359;DHT22;30077;52.474;13.326;2023-04-23T00:19:53;14.80;97.40
44359;DHT22;30077;52.474;13.326;2023-04-23T00:24:54;14.80;97.50
44359;DHT22;30077;52.474;13.326;2023-04-23T00:29:54;14.80;97.80
44359;DHT22;30077;52.474;13.326;2023-04-23T00:34:56;14.80;98.30
44359;DHT22;30077;52.474;13.326;2023-04-23T00:39:57;14.80;98.40
44359;DHT22;30077;52.474;13.326;2023-04-23T00:44:58;14.80;98.60
44359;DHT22;30077;52.474;13.326;2023-04-23T00:50:01;14.80;98.90
44359;DHT22;30077;52.474;13.326;2023-04-23T00:55:02;14.80;99.20
44359;DHT22;30077;52.474;13.326;2023-04-23T01:00:04;14.80;99.30
44359;DHT22;30077;52.474;13.326;2023-04-23T01:05:07;14.80;99.30
44359;DHT22;30077;52.474;13.326;2023-04-23T01:10:09;14.80;99.50
44359;DHT22;30077;52.474;13.326;2023-04-23T01:15:10;14.80;99.70
44359;DHT22;30077;52.474;13.326;2023-04-23T01:20:11;14.80;99.90
44359;DHT22;30077;52.474;13.326;2023-04-23T01:25:12;14.80;99.90
44359;DHT22;30077;52.474;13.326;2023-04-23T01:30:13;14.80;99.90
44359;DHT22;30077;52.474;13.326;2023-04-23T01:35:14;14.80;99.90
44359;DHT22;30077;52.474;13.326;2023-04-23T01:40:15;14.80;99.90
44359;DHT22;30077;52.474;13.326;2023-04-23T01:45:15;14.80;99.90
44359;DHT22;30077;52.474;13.326;2023-04-23T01:50:19;14.80;99.90
44359;DHT22;30077;52.474;13.326;2023-04-23T01:55:22;14.80;99.90
44359;DHT22;30077;52.474;13.326;2023-04-23T02:00:23;14.80;99.90
44359;DHT22;30077;52.474;13.326;2023-04-23T02:05:24;14.70;99.90
44359;DHT22;30077;52.474;13.326;2023-04-23T02:10:29;14.60;99.90
44359;DHT22;30077;52.474;13.326;2023-04-23T02:15:31;14.40;99.90
44359;DHT22;30077;52.474;13.326;2023-04-23T02:20:31;14.30;99.90
44359;DHT22;30077;52.474;13.326;2023-04-23T02:25:32;14.10;99.90
44359;DHT22;30077;52.474;13.326;2023-04-23T02:30:34;14.00;99.90
44359;DHT22;30077;52.474;13.326;2023-04-23T02:35:34;14.00;99.90
44359;DHT22;30077;52.474;13.326;2023-04-23T02:40:35;14.00;99.90
44359;DHT22;30077;52.474;13.326;2023-04-23T02:45:36;13.90;99.90
44359;DHT22;30077;52.474;13.326;2023-04-23T02:50:37;13.90;99.90
44359;DHT22;30077;52.474;13.326;2023-04-23T02:55:38;14.00;99.90
44359;DHT22;30077;52.474;13.326;2023-04-23T03:00:39;14.00;99.90
44359;DHT22;30077;52.474;13.326;2023-04-23T03:05:39;14.00;99.90
44359;DHT22;30077;52.474;13.326;2023-04-23T03:10:40;14.00;99.90
44359;DHT22;30077;52.474;13.326;2023-04-23T03:15:41;14.00;99.90
44359;DHT22;30077;52.474;13.326;2023-04-23T03:20:41;14.00;99.90
44359;DHT22;30077;52.474;13.326;2023-04-23T03:25:42;14.10;99.90
44359;DHT22;30077;52.474;13.326;2023-04-23T03:30:43;14.00;99.90
44359;DHT22;30077;52.474;13.326;2023-04-23T03:35:44;14.00;99.90
44359;DHT22;30077;52.474;13.326;2023-04-23T03:40:44;14.00;99.90
44359;DHT22;30077;52.474;13.326;2023-04-23T03:45:45;14.00;99.90
44359;DHT22;30077;52.474;13.326;2023-04-23T03:50:46;14.10;99.90
44359;DHT22;30077;52.474;13.326;2023-04-23T03:55:47;14.10;99.90
44359;DHT22;30077;52.474;13.326;2023-04-23T04:00:47;14.10;99.90
44359;DHT22;30077;52.474;13.326;2023-04-23T04:05:48;14.10;99.90
44359;DHT22;30077;52.474;13.326;2023-04-23T04:10:49;14.20;99.90
44359;DHT22;30077;52.474;13.326;2023-04-23T04:15:49;14.10;99.90
44359;DHT22;30077;52.474;13.326;2023-04-23T04:20:50;14.10;99.90
44359;DHT22;30077;52.474;13.326;2023-04-23T04:25:52;14.10;99.90
44359;DHT22;30077;52.474;13.326;2023-04-23T04:30:55;14.10;99.90
44359;DHT22;30077;52.474;13.326;2023-04-23T04:35:56;14.10;99.90
44359;DHT22;30077;52.474;13.326;2023-04-23T04:40:59;14.20;99.90
44359;DHT22;30077;52.474;13.326;2023-04-23T04:46:01;14.30;99.90
44359;DHT22;30077;52.474;13.326;2023-04-23T04:51:02;14.40;99.90
44359;DHT22;30077;52.474;13.326;2023-04-23T04:56:03;14.40;99.90
44359;DHT22;30077;52.474;13.326;2023-04-23T05:01:04;14.30;99.90
44359;DHT22;30077;52.474;13.326;2023-04-23T05:06:05;14.30;99.90
44359;DHT22;30077;52.474;13.326;2023-04-23T05:11:05;14.30;99.90
44359;DHT22;30077;52.474;13.326;2023-04-23T05:16:06;14.40;99.90
44359;DHT22;30077;52.474;13.326;2023-04-23T05:21:07;14.50;99.90
44359;DHT22;30077;52.474;13.326;2023-04-23T05:26:08;14.60;99.90
44359;DHT22;30077;52.474;13.326;2023-04-23T05:31:09;14.80;99.90
44359;DHT22;30077;52.474;13.326;2023-04-23T05:36:10;15.00;99.90
44359;DHT22;30077;52.474;13.326;2023-04-23T05:41:11;15.00;99.90
44359;DHT22;30077;52.474;13.326;2023-04-23T05:46:12;14.90;99.90
44359;DHT22;30077;52.474;13.326;2023-04-23T05:51:13;14.90;99.90
44359;DHT22;30077;52.474;13.326;2023-04-23T05:56:13;14.80;99.90
44359;DHT22;30077;52.474;13.326;2023-04-23T06:01:14;14.90;99.90
44359;DHT22;30077;52.474;13.326;2023-04-23T06:06:15;15.00;99.90
44359;DHT22;30077;52.474;13.326;2023-04-23T06:11:16;15.20;99.90
44359;DHT22;30077;52.474;13.326;2023-04-23T06:16:17;15.40;99.90
44359;DHT22;30077;52.474;13.326;2023-04-23T06:21:17;15.50;99.90
44359;DHT22;30077;52.474;13.326;2023-04-23T06:26:18;15.50;99.90
44359;DHT22;30077;52.474;13.326;2023-04-23T06:31:19;15.70;99.90
44359;DHT22;30077;52.474;13.326;2023-04-23T06:36:21;15.80;99.90
44359;DHT22;30077;52.474;13.326;2023-04-23T06:41:21;15.80;99.90
44359;DHT22;30077;52.474;13.326;2023-04-23T06:46:22;15.70;99.90
44359;DHT22;30077;52.474;13.326;2023-04-23T06:51:24;15.70;99.90
44359;DHT22;30077;52.474;13.326;2023-04-23T06:56:26;15.50;99.90
44359;DHT22;30077;52.474;13.326;2023-04-23T07:01:27;15.40;99.90
44359;DHT22;30077;52.474;13.326;2023-04-23T07:06:28;15.30;99.90
44359;DHT22;30077;52.474;13.326;2023-04-23T07:11:29;15.10;99.90
44359;DHT22;30077;52.474;13.326;2023-04-23T07:16:31;14.80;99.90
44359;DHT22;30077;52.474;13.326;2023-04-23T07:21:33;14.70;99.90
44359;DHT22;30077;52.474;13.326;2023-04-23T07:26:34;14.60;99.90
44359;DHT22;30077;52.474;13.326;2023-04-23T07:31:35;14.60;99.90
44359;DHT22;30077;52.474;13.326;2023-04-23T07:36:36;14.60;99.90
44359;DHT22;30077;52.474;13.326;2023-04-23T07:41:37;14.60;99.90
44359;DHT22;30077;52.474;13.326;2023-04-23T07:46:38;14.90;99.90
44359;DHT22;30077;52.474;13.326;2023-04-23T07:51:38;15.00;99.90
44359;DHT22;30077;52.474;13.326;2023-04-23T07:56:39;15.00;99.90
44359;DHT22;30077;52.474;13.326;2023-04-23T08:01:40;15.10;99.90
44359;DHT22;30077;52.474;13.326;2023-04-23T08:06:41;15.10;99.90
44359;DHT22;30077;52.474;13.326;2023-04-23T08:11:42;15.10;99.90
44359;DHT22;30077;52.474;13.326;2023-04-23T08:16:44;15.20;99.90
44359;DHT22;30077;52.474;13.326;2023-04-23T08:21:44;15.30;99.90
44359;DHT22;30077;52.474;13.326;2023-04-23T08:26:45;15.60;99.90
44359;DHT22;30077;52.474;13.326;2023-04-23T08:31:47;15.90;99.90
44359;DHT22;30077;52.474;13.326;2023-04-23T08:36:48;16.40;99.90
44359;DHT22;30077;52.474;13.326;2023-04-23T08:41:53;16.90;99.90
44359;DHT22;30077;52.474;13.326;2023-04-23T08:46:55;17.40;99.90
44359;DHT22;30077;52.474;13.326;2023-04-23T08:52:03;17.60;99.90
44359;DHT22;30077;52.474;13.326;2023-04-23T08:57:10;17.40;99.90
44359;DHT22;30077;52.474;13.326;2023-04-23T09:02:12;17.20;99.90
44359;DHT22;30077;52.474;13.326;2023-04-23T09:07:15;16.70;99.90
44359;DHT22;30077;52.474;13.326;2023-04-23T09:12:17;16.20;99.90
44359;DHT22;30077;52.474;13.326;2023-04-23T09:17:18;15.80;99.90
44359;DHT22;30077;52.474;13.326;2023-04-23T09:22:41;15.70;99.90
44359;DHT22;30077;52.474;13.326;2023-04-23T09:27:47;15.40;99.90
44359;DHT22;30077;52.474;13.326;2023-04-23T09:32:50;15.00;99.90
44359;DHT22;30077;52.474;13.326;2023-04-23T09:37:51;14.80;99.90
44359;DHT22;30077;52.474;13.326;2023-04-23T09:42:52;14.70;99.90
44359;DHT22;30077;52.474;13.326;2023-04-23T09:47:55;14.60;99.90
44359;DHT22;30077;52.474;13.326;2023-04-23T09:52:57;14.40;99.90
44359;DHT22;30077;52.474;13.326;2023-04-23T09:57:57;14.40;99.90
44359;DHT22;30077;52.474;13.326;2023-04-23T10:02:59;14.30;99.90
44359;DHT22;30077;52.474;13.326;2023-04-23T10:08:04;14.30;99.90
44359;DHT22;30077;52.474;13.326;2023-04-23T10:13:06;14.20;99.90
44359;DHT22;30077;52.474;13.326;2023-04-23T10:18:07;14.00;99.90
44359;DHT22;30077;52.474;13.326;2023-04-23T10:23:08;14.00;99.90
44359;DHT22;30077;52.474;13.326;2023-04-23T10:28:11;14.20;99.90
44359;DHT22;30077;52.474;13.326;2023-04-23T10:33:13;14.20;99.90
44359;DHT22;30077;52.474;13.326;2023-04-23T10:38:14;14.60;99.90
44359;DHT22;30077;52.474;13.326;2023-04-23T10:43:16;15.20;99.90
44359;DHT22;30077;52.474;13.326;2023-04-23T10:48:17;15.90;99.90
44359;DHT22;30077;52.474;13.326;2023-04-23T10:53:19;16.50;99.90
44359;DHT22;30077;52.474;13.326;2023-04-23T10:58:20;16.50;99.90
44359;DHT22;30077;52.474;13.326;2023-04-23T11:03:36;17.10;99.90
44359;DHT22;30077;52.474;13.326;2023-04-23T11:08:51;17.30;99.90
44359;DHT22;30077;52.474;13.326;2023-04-23T11:13:53;17.40;99.90
44359;DHT22;30077;52.474;13.326;2023-04-23T11:19:12;17.80;99.90
44359;DHT22;30077;52.474;13.326;2023-04-23T11:24:12;17.70;99.90
44359;DHT22;30077;52.474;13.326;2023-04-23T11:29:14;17.80;99.90
44359;DHT22;30077;52.474;13.326;2023-04-23T11:34:16;17.90;99.90
44359;DHT22;30077;52.474;13.326;2023-04-23T11:39:17;17.80;99.90
44359;DHT22;30077;52.474;13.326;2023-04-23T11:44:19;17.60;99.90
44359;DHT22;30077;52.474;13.326;2023-04-23T11:49:20;17.70;99.90
44359;DHT22;30077;52.474;13.326;2023-04-23T11:54:24;17.90;99.90
44359;DHT22;30077;52.474;13.326;2023-04-23T11:59:27;17.90;99.90
44359;DHT22;30077;52.474;13.326;2023-04-23T12:04:30;17.90;99.90
44359;DHT22;30077;52.474;13.326;2023-04-23T12:09:31;17.60;99.90
44359;DHT22;30077;52.474;13.326;2023-04-23T12:14:32;17.60;99.90
44359;DHT22;30077;52.474;13.326;2023-04-23T12:19:33;17.80;99.90
44359;DHT22;30077;52.474;13.326;2023-04-23T12:24:48;17.50;99.90
44359;DHT22;30077;52.474;13.326;2023-04-23T12:29:59;18.50;99.90
44359;DHT22;30077;52.474;13.326;2023-04-23T12:35:00;19.00;99.90
44359;DHT22;30077;52.474;13.326;2023-04-23T12:40:01;18.90;99.90
44359;DHT22;30077;52.474;13.326;2023-04-23T12:45:08;18.50;99.90
44359;DHT22;30077;52.474;13.326;2023-04-23T12:50:09;18.50;99.90
44359;DHT22;30077;52.474;13.326;2023-04-23T12:55:10;18.30;99.90
44359;DHT22;30077;52.474;13.326;2023-04-23T13:00:11;18.00;99.90
44359;DHT22;30077;52.474;13.326;2023-04-23T13:05:12;17.90;99.90
44359;DHT22;30077;52.474;13.326;2023-04-23T13:10:13;17.60;99.90
44359;DHT22;30077;52.474;13.326;2023-04-23T13:15:14;17.40;99.90
44359;DHT22;30077;52.474;13.326;2023-04-23T13:20:15;17.60;99.90
44359;DHT22;30077;52.474;13.326;2023-04-23T13:25:15;17.90;99.90
44359;DHT22;30077;52.474;13.326;2023-04-23T13:30:16;18.30;99.90
44359;DHT22;30077;52.474;13.326;2023-04-23T13:35:17;18.80;99.90
44359;DHT22;30077;52.474;13.326;2023-04-23T13:40:17;19.00;99.90
44359;DHT22;30077;52.474;13.326;2023-04-23T13:45:18;18.90;99.90
44359;DHT22;30077;52.474;13.326;2023-04-23T13:50:19;18.80;99.90
44359;DHT22;30077;52.474;13.326;2023-04-23T13:55:20;18.80;99.90
44359;DHT22;30077;52.474;13.326;2023-04-23T14:00:20;18.80;99.90
44359;DHT22;30077;52.474;13.326;2023-04-23T14:05:22;19.00;99.90
44359;DHT22;30077;52.474;13.326;2023-04-23T14:10:23;19.00;99.90
44359;DHT22;30077;52.474;13.326;2023-04-23T14:15:24;19.00;99.90
44359;DHT22;30077;52.474;13.326;2023-04-23T14:20:24;18.80;99.90
44359;DHT22;30077;52.474;13.326;2023-04-23T14:25:39;18.40;99.90
44359;DHT22;30077;52.474;13.326;2023-04-23T14:30:40;18.40;99.90
44359;DHT22;30077;52.474;13.326;2023-04-23T14:35:41;18.50;99.90
44359;DHT22;30077;52.474;13.326;2023-04-23T14:40:41;18.50;99.90
44359;DHT22;30077;52.474;13.326;2023-04-23T14:45:42;18.60;99.90
44359;DHT22;30077;52.474;13.326;2023-04-23T14:50:44;18.20;99.90
44359;DHT22;30077;52.474;13.326;2023-04-23T14:55:46;18.30;99.90
44359;DHT22;30077;52.474;13.326;2023-04-23T15:00:47;18.60;99.90
44359;DHT22;30077;52.474;13.326;2023-04-23T15:05:50;18.70;99.90
44359;DHT22;30077;52.474;13.326;2023-04-23T15:10:51;18.50;99.90
44359;DHT22;30077;52.474;13.326;2023-04-23T15:15:54;18.10;99.90
44359;DHT22;30077;52.474;13.326;2023-04-23T15:21:01;18.10;99.90
44359;DHT22;30077;52.474;13.326;2023-04-23T15:26:02;17.90;99.90
44359;DHT22;30077;52.474;13.326;2023-04-23T15:31:03;18.00;99.90
44359;DHT22;30077;52.474;13.326;2023-04-23T15:36:04;18.20;99.60
44359;DHT22;30077;52.474;13.326;2023-04-23T15:41:06;18.30;99.10
44359;DHT22;30077;52.474;13.326;2023-04-23T15:46:07;18.30;99.00
44359;DHT22;30077;52.474;13.326;2023-04-23T15:51:08;18.20;97.80
44359;DHT22;30077;52.474;13.326;2023-04-23T15:56:09;18.20;99.30
44359;DHT22;30077;52.474;13.326;2023-04-23T16:01:09;18.30;96.90
44359;DHT22;30077;52.474;13.326;2023-04-23T16:06:10;18.20;96.90
44359;DHT22;30077;52.474;13.326;2023-04-23T16:11:11;18.10;97.50
44359;DHT22;30077;52.474;13.326;2023-04-23T16:16:13;18.10;98.30
44359;DHT22;30077;52.474;13.326;2023-04-23T16:21:14;18.10;97.00
44359;DHT22;30077;52.474;13.326;2023-04-23T16:26:15;18.20;97.20
44359;DHT22;30077;52.474;13.326;2023-04-23T16:31:16;18.50;96.70
44359;DHT22;30077;52.474;13.326;2023-04-23T16:36:17;18.60;97.10
44359;DHT22;30077;52.474;13.326;2023-04-23T16:41:17;18.90;95.90
44359;DHT22;30077;52.474;13.326;2023-04-23T16:46:19;19.00;96.80
44359;DHT22;30077;52.474;13.326;2023-04-23T16:51:20;19.10;97.00
44359;DHT22;30077;52.474;13.326;2023-04-23T16:56:21;18.60;97.30
44359;DHT22;30077;52.474;13.326;2023-04-23T17:01:22;18.30;98.80
44359;DHT22;30077;52.474;13.326;2023-04-23T17:06:28;17.90;99.90
44359;DHT22;30077;52.474;13.326;2023-04-23T17:11:29;17.70;99.90
44359;DHT22;30077;52.474;13.326;2023-04-23T17:16:30;17.60;99.90
44359;DHT22;30077;52.474;13.326;2023-04-23T17:21:31;17.50;99.90
44359;DHT22;30077;52.474;13.326;2023-04-23T17:26:32;17.60;99.90
44359;DHT22;30077;52.474;13.326;2023-04-23T17:31:32;17.80;99.90
44359;DHT22;30077;52.474;13.326;2023-04-23T17:36:33;17.80;99.90
44359;DHT22;30077;52.474;13.326;2023-04-23T17:41:34;18.10;99.90
44359;DHT22;30077;52.474;13.326;2023-04-23T17:46:34;18.10;99.90
44359;DHT22;30077;52.474;13.326;2023-04-23T17:51:35;17.90;99.90
44359;DHT22;30077;52.474;13.326;2023-04-23T17:56:36;17.80;99.90
44359;DHT22;30077;52.474;13.326;2023-04-23T18:01:37;17.60;99.90
44359;DHT22;30077;52.474;13.326;2023-04-23T18:06:37;17.30;99.90
44359;DHT22;30077;52.474;13.326;2023-04-23T18:11:38;17.10;99.90
44359;DHT22;30077;52.474;13.326;2023-04-23T18:16:39;16.70;99.90
44359;DHT22;30077;52.474;13.326;2023-04-23T18:21:39;16.50;99.90
44359;DHT22;30077;52.474;13.326;2023-04-23T18:26:41;16.30;99.90
44359;DHT22;30077;52.474;13.326;2023-04-23T18:31:42;16.20;99.90
44359;DHT22;30077;52.474;13.326;2023-04-23T18:36:42;16.00;99.90
44359;DHT22;30077;52.474;13.326;2023-04-23T18:41:45;15.80;99.90
44359;DHT22;30077;52.474;13.326;2023-04-23T18:46:47;15.60;99.90
44359;DHT22;30077;52.474;13.326;2023-04-23T18:51:51;15.50;99.90
44359;DHT22;30077;52.474;13.326;2023-04-23T18:56:52;15.40;99.90
44359;DHT22;30077;52.474;13.326;2023-04-23T19:01:53;15.30;99.90
44359;DHT22;30077;52.474;13.326;2023-04-23T19:06:55;15.20;99.90
44359;DHT22;30077;52.474;13.326;2023-04-23T19:11:56;15.10;99.90
44359;DHT22;30077;52.474;13.326;2023-04-23T19:16:57;15.00;99.90
44359;DHT22;30077;52.474;13.326;2023-04-23T19:21:58;15.00;99.90
44359;DHT22;30077;52.474;13.326;2023-04-23T19:27:05;14.90;99.90
44359;DHT22;30077;52.474;13.326;2023-04-23T19:32:07;14.80;99.90
44359;DHT22;30077;52.474;13.326;2023-04-23T19:37:08;14.70;99.90
44359;DHT22;30077;52.474;13.326;2023-04-23T19:42:09;14.60;99.90
44359;DHT22;30077;52.474;13.326;2023-04-23T19:47:10;14.50;99.90
44359;DHT22;30077;52.474;13.326;2023-04-23T19:52:16;14.40;99.90
44359;DHT22;30077;52.474;13.326;2023-04-23T19:57:19;14.30;99.90
44359;DHT22;30077;52.474;13.326;2023-04-23T20:02:21;14.20;99.90
44359;DHT22;30077;52.474;13.326;2023-04-23T20:07:24;14.10;99.90
44359;DHT22;30077;52.474;13.326;2023-04-23T20:12:26;14.10;99.90
44359;DHT22;30077;52.474;13.326;2023-04-23T20:17:29;14.10;99.90
44359;DHT22;30077;52.474;13.326;2023-04-23T20:22:32;14.00;99.90
44359;DHT22;30077;52.474;13.326;2023-04-23T20:27:33;14.00;99.90
44359;DHT22;30077;52.474;13.326;2023-04-23T20:32:34;14.00;99.90
44359;DHT22;30077;52.474;13.326;2023-04-23T20:37:35;14.00;99.90
44359;DHT22;30077;52.474;13.326;2023-04-23T20:42:36;13.90;99.90
44359;DHT22;30077;52.474;13.326;2023-04-23T20:47:38;13.80;99.90
44359;DHT22;30077;52.474;13.326;2023-04-23T20:52:39;13.80;99.90
44359;DHT22;30077;52.474;13.326;2023-04-23T20:57:39;13.70;99.90
44359;DHT22;30077;52.474;13.326;2023-04-23T21:02:40;13.60;99.90
44359;DHT22;30077;52.474;13.326;2023-04-23T21:07:41;13.60;99.90
44359;DHT22;30077;52.474;13.326;2023-04-23T21:12:44;13.60;99.90
44359;DHT22;30077;52.474;13.326;2023-04-23T21:17:45;13.50;99.90
44359;DHT22;30077;52.474;13.326;2023-04-23T21:22:46;13.50;99.90
44359;DHT22;30077;52.474;13.326;2023-04-23T21:27:47;13.50;99.90
44359;DHT22;30077;52.474;13.326;2023-04-23T21:32:48;13.40;99.90
44359;DHT22;30077;52.474;13.326;2023-04-23T21:37:51;13.40;99.90
44359;DHT22;30077;52.474;13.326;2023-04-23T21:42:51;13.30;99.90
44359;DHT22;30077;52.474;13.326;2023-04-23T21:47:52;13.20;99.90
44359;DHT22;30077;52.474;13.326;2023-04-23T21:52:57;13.20;99.90
44359;DHT22;30077;52.474;13.326;2023-04-23T21:57:58;13.10;99.90
44359;DHT22;30077;52.474;13.326;2023-04-23T22:03:00;13.10;99.90
44359;DHT22;30077;52.474;13.326;2023-04-23T22:08:01;13.00;99.90
44359;DHT22;30077;52.474;13.326;2023-04-23T22:13:02;13.00;99.90
44359;DHT22;30077;52.474;13.326;2023-04-23T22:18:03;13.00;99.90
44359;DHT22;30077;52.474;13.326;2023-04-23T22:23:04;12.90;99.90
44359;DHT22;30077;52.474;13.326;2023-04-23T22:28:05;12.90;99.90
44359;DHT22;30077;52.474;13.326;2023-04-23T22:33:06;12.90;99.90
44359;DHT22;30077;52.474;13.326;2023-04-23T22:38:07;12.80;99.90
44359;DHT22;30077;52.474;13.326;2023-04-23T22:43:08;12.80;99.90
44359;DHT22;30077;52.474;13.326;2023-04-23T22:48:08;12.80;99.90
44359;DHT22;30077;52.474;13.326;2023-04-23T22:53:09;12.80;99.90
44359;DHT22;30077;52.474;13.326;2023-04-23T22:58:12;12.80;99.90
44359;DHT22;30077;52.474;13.326;2023-04-23T23:03:12;12.80;99.90
44359;DHT22;30077;52.474;13.326;2023-04-23T23:08:13;12.70;99.90
44359;DHT22;30077;52.474;13.326;2023-04-23T23:13:14;12.70;99.90
44359;DHT22;30077;52.474;13.326;2023-04-23T23:18:15;12.70;99.90
44359;DHT22;30077;52.474;13.326;2023-04-23T23:23:15;12.60;99.90
44359;DHT22;30077;52.474;13.326;2023-04-23T23:28:16;12.60;99.90
44359;DHT22;30077;52.474;13.326;2023-04-23T23:33:17;12.50;99.90
44359;DHT22;30077;52.474;13.326;2023-04-23T23:38:17;12.40;99.90
44359;DHT22;30077;52.474;13.326;2023-04-23T23:43:18;12.40;99.90
44359;DHT22;30077;52.474;13.326;2023-04-23T23:48:19;12.40;99.90
44359;DHT22;30077;52.474;13.326;2023-04-23T23:53:19;12.40;99.90
44359;DHT22;30077;52.474;13.326;2023-04-23T23:58:21;12.40;99.90
